桃園國際機場 - 塔臺(二站)

METAR RCTP 281200Z 06009KT 9999 FEW020 27/23 Q1009 NOSIG RMK A2980=

站台狀態:Offline
最後更新:2021-09-28 20:30:01